Time;durP1;ratioP1;P1;durP2;ratioP2;P2;SDS_P1;SDS_P2;PMS_P1;PMS_P2;Temp;Humidity;BMP_temperature;BMP_pressure;BME280_temperature;BME280_humidity;BME280_pressure;Samples;Min_cycle;Max_cycle;Signal;HPM_P1;HPM_P2
2023/05/01 00:00:32;;;;;;;4.30;2.40;;;17.10;79.00;;;;;;5048122;28;20140;-53
2023/05/01 00:02:58;;;;;;;2.47;2.10;;;17.10;79.80;;;;;;5046883;28;20104;-53
2023/05/01 00:05:23;;;;;;;4.57;2.25;;;17.10;79.20;;;;;;5048516;28;20592;-54
2023/05/01 00:07:49;;;;;;;1.90;1.80;;;17.10;79.30;;;;;;5030160;28;20033;-53
2023/05/01 00:10:15;;;;;;;2.33;2.13;;;17.10;79.50;;;;;;5046931;28;20085;-53
2023/05/01 00:12:40;;;;;;;1.98;1.70;;;17.00;79.50;;;;;;5048126;28;20033;-53
2023/05/01 00:15:07;;;;;;;2.90;2.00;;;17.00;79.50;;;;;;5048066;28;20022;-54
2023/05/01 00:17:33;;;;;;;3.35;2.03;;;17.00;79.60;;;;;;5047799;28;20041;-53
2023/05/01 00:19:58;;;;;;;3.45;1.85;;;17.00;79.90;;;;;;5047935;28;20025;-53
2023/05/01 00:22:24;;;;;;;3.83;1.88;;;17.00;79.70;;;;;;5047829;28;20037;-53
2023/05/01 00:24:50;;;;;;;3.75;2.28;;;17.00;79.70;;;;;;5047745;28;20029;-53
2023/05/01 00:27:16;;;;;;;2.72;2.10;;;16.90;79.90;;;;;;5047746;28;20033;-53
2023/05/01 00:29:42;;;;;;;5.57;2.30;;;16.90;79.90;;;;;;5046608;28;20036;-54
2023/05/01 00:32:08;;;;;;;2.15;1.95;;;16.90;80.00;;;;;;5046268;28;20052;-54
2023/05/01 00:34:34;;;;;;;2.75;2.10;;;16.90;79.90;;;;;;5047984;28;20026;-53
2023/05/01 00:36:59;;;;;;;2.38;1.80;;;16.90;79.90;;;;;;5047528;28;20036;-53
2023/05/01 00:39:25;;;;;;;3.15;2.15;;;16.90;80.00;;;;;;5047695;28;20493;-53
2023/05/01 00:41:50;;;;;;;2.78;2.05;;;16.90;80.10;;;;;;5047718;28;20029;-53
2023/05/01 00:44:16;;;;;;;3.08;2.10;;;16.90;80.10;;;;;;5044861;28;20037;-53
2023/05/01 00:46:42;;;;;;;3.47;2.10;;;16.90;80.10;;;;;;5049065;28;20033;-54
2023/05/01 00:49:08;;;;;;;2.35;2.05;;;16.90;80.20;;;;;;5046442;28;20029;-54
2023/05/01 00:51:34;;;;;;;2.60;2.15;;;16.80;80.20;;;;;;5047358;28;20033;-54
2023/05/01 00:54:00;;;;;;;4.53;2.17;;;16.80;80.20;;;;;;5045520;28;20079;-53
2023/05/01 00:56:26;;;;;;;2.65;2.00;;;16.80;80.30;;;;;;5046287;28;20049;-53
2023/05/01 00:58:52;;;;;;;2.30;1.90;;;16.80;80.30;;;;;;5046007;28;20049;-54
2023/05/01 01:01:22;;;;;;;2.38;1.80;;;16.80;80.40;;;;;;5045474;28;20041;-54
2023/05/01 01:03:49;;;;;;;2.10;1.77;;;16.80;80.40;;;;;;5045983;28;20541;-53
2023/05/01 01:06:26;;;;;;;2.40;1.95;;;16.80;80.60;;;;;;5047022;28;20033;-53
2023/05/01 01:09:12;;;;;;;2.17;1.88;;;16.80;80.60;;;;;;5047159;28;20037;-53
2023/05/01 01:11:52;;;;;;;2.35;2.00;;;16.70;80.60;;;;;;5046576;28;20061;-53
2023/05/01 01:14:29;;;;;;;2.20;2.00;;;16.70;81.10;;;;;;5030712;28;20025;-53
2023/05/01 01:17:03;;;;;;;3.40;2.20;;;16.70;81.00;;;;;;5045879;28;20044;-53
2023/05/01 01:19:42;;;;;;;3.00;2.08;;;16.70;81.20;;;;;;5045709;28;20060;-53
2023/05/01 01:22:11;;;;;;;2.25;1.92;;;16.60;81.00;;;;;;5046165;28;20068;-53
2023/05/01 01:25:21;;;;;;;2.90;1.95;;;16.70;81.00;;;;;;5046078;28;20026;-52
2023/05/01 01:28:10;;;;;;;2.17;1.98;;;16.60;81.20;;;;;;5044795;28;20038;-53
2023/05/01 01:30:44;;;;;;;2.25;1.92;;;16.60;81.30;;;;;;5045703;28;20045;-53
2023/05/01 01:33:40;;;;;;;2.55;1.83;;;16.60;81.30;;;;;;5045441;28;20030;-53
2023/05/01 01:36:09;;;;;;;3.92;1.75;;;16.60;81.40;;;;;;5045692;28;20048;-53
2023/05/01 01:38:59;;;;;;;2.95;2.08;;;16.60;81.50;;;;;;5046734;28;20052;-53
2023/05/01 01:41:30;;;;;;;2.35;1.90;;;16.50;81.50;;;;;;5045387;28;20024;-53
2023/05/01 01:44:14;;;;;;;3.30;2.08;;;16.50;81.70;;;;;;5045133;28;20033;-53
2023/05/01 01:46:40;;;;;;;3.33;2.03;;;16.50;81.90;;;;;;5046500;28;20085;-53
2023/05/01 01:49:06;;;;;;;2.58;2.08;;;16.50;82.10;;;;;;5046614;28;20029;-53
2023/05/01 01:51:32;;;;;;;2.10;1.90;;;16.50;81.80;;;;;;5045124;28;20017;-53
2023/05/01 01:53:58;;;;;;;4.28;2.55;;;16.50;82.10;;;;;;5045946;28;20049;-53
2023/05/01 01:56:24;;;;;;;2.30;2.10;;;16.50;82.00;;;;;;5044846;28;20017;-53
2023/05/01 01:58:51;;;;;;;2.00;1.88;;;16.50;82.20;;;;;;5044982;28;20057;-53
2023/05/01 02:01:16;;;;;;;2.85;1.90;;;16.50;82.20;;;;;;5045905;28;20029;-53
2023/05/01 02:03:42;;;;;;;1.90;1.75;;;16.50;82.20;;;;;;5044308;28;20037;-53
2023/05/01 02:06:08;;;;;;;4.03;2.25;;;16.50;82.40;;;;;;5044675;28;20093;-53
2023/05/01 02:08:34;;;;;;;3.33;2.10;;;16.40;82.40;;;;;;5044490;28;20022;-53
2023/05/01 02:11:00;;;;;;;2.22;1.77;;;16.40;82.50;;;;;;5045836;28;20029;-53
2023/05/01 02:13:28;;;;;;;3.53;2.03;;;16.40;82.60;;;;;;5044681;28;20052;-53
2023/05/01 02:15:57;;;;;;;2.88;2.13;;;16.40;82.70;;;;;;5044313;28;20036;-53
2023/05/01 02:18:23;;;;;;;2.70;2.20;;;16.30;82.70;;;;;;5044384;28;20520;-53
2023/05/01 02:20:49;;;;;;;2.40;2.20;;;16.30;82.90;;;;;;5044756;28;20034;-53
2023/05/01 02:23:15;;;;;;;2.35;1.90;;;16.30;83.00;;;;;;5044187;28;20303;-53
2023/05/01 02:25:41;;;;;;;3.00;2.08;;;16.30;83.10;;;;;;5045305;28;20045;-53
2023/05/01 02:28:15;;;;;;;3.38;2.30;;;16.30;83.20;;;;;;5043885;28;20030;-53
2023/05/01 02:30:43;;;;;;;2.37;1.80;;;16.30;83.30;;;;;;5045541;28;20434;-53
2023/05/01 02:33:10;;;;;;;2.28;2.05;;;16.30;83.20;;;;;;5045533;28;20216;-53
2023/05/01 02:35:59;;;;;;;2.80;2.47;;;16.30;83.40;;;;;;5045459;28;20025;-53
2023/05/01 02:38:26;;;;;;;2.80;2.35;;;16.20;83.40;;;;;;5023088;28;20057;-53
2023/05/01 02:40:52;;;;;;;3.17;2.28;;;16.20;84.20;;;;;;5007003;28;20034;-53
2023/05/01 02:43:19;;;;;;;2.58;1.90;;;16.20;83.70;;;;;;5006582;28;20058;-53
2023/05/01 02:45:45;;;;;;;2.40;2.20;;;16.20;83.90;;;;;;5023240;28;20025;-53
2023/05/01 02:48:12;;;;;;;2.55;2.20;;;16.20;84.00;;;;;;5006184;28;20034;-53
2023/05/01 02:50:39;;;;;;;2.13;1.90;;;16.10;83.90;;;;;;5003711;28;20042;-53
2023/05/01 02:53:05;;;;;;;3.78;2.25;;;16.10;84.00;;;;;;5003202;28;20026;-53
2023/05/01 02:55:31;;;;;;;2.10;1.92;;;16.10;84.10;;;;;;5006576;28;20030;-53
2023/05/01 02:57:58;;;;;;;2.35;2.15;;;16.10;84.20;;;;;;5022588;28;20060;-53
2023/05/01 03:00:24;;;;;;;2.08;1.88;;;16.10;84.40;;;;;;5022799;28;20096;-53
2023/05/01 03:02:49;;;;;;;3.00;2.00;;;16.10;84.40;;;;;;5022693;28;20490;-53
2023/05/01 03:05:15;;;;;;;2.70;2.20;;;16.10;84.60;;;;;;4989714;28;20034;-53
2023/05/01 03:07:40;;;;;;;2.45;2.03;;;16.10;84.70;;;;;;5022177;28;20070;-53
2023/05/01 03:10:07;;;;;;;2.35;2.10;;;16.00;84.50;;;;;;5022862;28;20034;-53
2023/05/01 03:12:32;;;;;;;2.67;2.20;;;16.10;84.50;;;;;;5022191;28;20025;-53
2023/05/01 03:14:58;;;;;;;2.53;2.20;;;16.10;84.50;;;;;;5009733;28;20033;-53
2023/05/01 03:17:23;;;;;;;3.38;2.03;;;16.00;84.60;;;;;;5044548;28;20060;-53
2023/05/01 03:19:50;;;;;;;3.22;2.22;;;16.00;84.60;;;;;;5044156;28;20032;-53
2023/05/01 03:22:16;;;;;;;7.45;2.20;;;16.00;85.30;;;;;;5044582;28;20143;-53
2023/05/01 03:24:41;;;;;;;2.83;2.13;;;16.00;84.90;;;;;;5044241;28;20071;-53
2023/05/01 03:27:07;;;;;;;4.05;2.20;;;15.90;84.80;;;;;;5043208;28;20056;-53
2023/05/01 03:29:33;;;;;;;2.45;2.03;;;15.90;84.80;;;;;;5044622;28;20014;-53
2023/05/01 03:31:59;;;;;;;3.20;2.10;;;15.90;84.90;;;;;;5044601;28;20100;-53
2023/05/01 03:34:26;;;;;;;3.95;2.08;;;15.90;85.00;;;;;;5044524;28;20075;-53
2023/05/01 03:36:52;;;;;;;2.38;2.00;;;15.90;85.00;;;;;;5044768;28;20159;-53
2023/05/01 03:39:18;;;;;;;2.10;1.90;;;15.90;85.00;;;;;;5044934;28;20040;-53
2023/05/01 03:41:44;;;;;;;2.58;2.03;;;15.90;85.20;;;;;;5045538;28;20061;-53
2023/05/01 03:44:10;;;;;;;3.72;2.20;;;15.90;85.90;;;;;;5045556;28;20029;-53
2023/05/01 03:46:35;;;;;;;2.20;1.80;;;15.90;85.30;;;;;;5044696;28;20108;-53
2023/05/01 03:49:01;;;;;;;2.22;1.95;;;15.80;85.20;;;;;;5044797;28;20034;-53
2023/05/01 03:51:27;;;;;;;2.40;2.20;;;15.80;85.30;;;;;;5043148;28;20077;-53
2023/05/01 03:53:55;;;;;;;2.35;2.15;;;15.80;85.50;;;;;;5044430;28;20071;-53
2023/05/01 03:56:24;;;;;;;2.40;2.17;;;15.80;85.60;;;;;;5044604;28;20026;-53
2023/05/01 03:58:50;;;;;;;3.13;1.75;;;15.80;85.50;;;;;;5044451;28;20038;-53
2023/05/01 04:01:16;;;;;;;2.38;2.10;;;15.80;85.60;;;;;;5044316;28;20084;-53
2023/05/01 04:03:41;;;;;;;2.20;1.90;;;15.80;85.60;;;;;;5044302;28;20033;-53
2023/05/01 04:06:09;;;;;;;4.18;2.28;;;15.80;85.60;;;;;;5044359;28;20045;-53
2023/05/01 04:08:35;;;;;;;1.88;1.70;;;15.80;85.60;;;;;;5044035;28;20454;-53
2023/05/01 04:11:00;;;;;;;2.47;2.28;;;15.70;85.60;;;;;;5044509;28;20088;-53
2023/05/01 04:13:26;;;;;;;2.53;2.08;;;15.70;85.70;;;;;;5044320;28;20469;-53
2023/05/01 04:15:54;;;;;;;2.53;2.20;;;15.70;85.90;;;;;;5044622;28;20029;-54
2023/05/01 04:18:19;;;;;;;2.47;2.05;;;15.70;85.90;;;;;;5046307;28;20029;-53
2023/05/01 04:20:45;;;;;;;2.60;2.10;;;15.70;86.00;;;;;;5048083;28;20539;-53
2023/05/01 04:23:11;;;;;;;2.75;2.05;;;15.70;86.00;;;;;;5048036;28;20021;-53
2023/05/01 04:25:37;;;;;;;2.15;1.80;;;15.70;86.20;;;;;;5047664;28;20030;-53
2023/05/01 04:28:03;;;;;;;3.95;1.95;;;15.70;86.10;;;;;;5047970;28;20067;-53
2023/05/01 04:30:30;;;;;;;2.45;2.00;;;15.60;86.10;;;;;;5047708;28;20034;-53
2023/05/01 04:32:57;;;;;;;2.10;1.90;;;15.60;86.20;;;;;;5047624;28;20030;-53
2023/05/01 04:35:23;;;;;;;3.08;2.15;;;15.60;86.40;;;;;;5046351;28;20041;-53
2023/05/01 04:37:48;;;;;;;5.97;2.03;;;15.60;86.20;;;;;;5047586;28;20029;-53
2023/05/01 04:40:15;;;;;;;2.67;2.00;;;15.60;86.20;;;;;;5046344;28;20040;-53
2023/05/01 04:42:41;;;;;;;3.45;1.95;;;15.60;86.30;;;;;;5046208;28;20037;-53
2023/05/01 04:45:07;;;;;;;2.60;2.08;;;15.60;86.30;;;;;;5046284;28;20029;-53
2023/05/01 04:47:32;;;;;;;2.33;2.13;;;15.60;86.30;;;;;;5047619;28;20059;-53
2023/05/01 04:49:58;;;;;;;2.25;1.92;;;15.60;86.30;;;;;;5045565;28;20049;-53
2023/05/01 04:52:23;;;;;;;2.47;1.75;;;15.60;86.50;;;;;;5047420;28;20094;-53
2023/05/01 04:54:49;;;;;;;2.10;1.90;;;15.50;86.40;;;;;;5047460;28;20033;-54
2023/05/01 04:57:15;;;;;;;2.97;2.20;;;15.50;86.50;;;;;;5047319;28;20048;-53
2023/05/01 04:59:42;;;;;;;3.25;2.10;;;15.50;86.60;;;;;;5046963;28;20049;-53
2023/05/01 05:02:07;;;;;;;2.28;1.88;;;15.50;86.70;;;;;;5046881;28;20100;-53
2023/05/01 05:04:33;;;;;;;2.55;2.10;;;15.50;87.40;;;;;;5045647;28;20029;-53
2023/05/01 05:06:58;;;;;;;2.30;2.10;;;15.50;86.80;;;;;;5045812;28;20390;-53
2023/05/01 05:09:24;;;;;;;2.85;2.10;;;15.50;86.90;;;;;;5045075;28;20036;-53
2023/05/01 05:11:50;;;;;;;2.67;2.10;;;15.50;86.90;;;;;;5046956;28;20021;-53
2023/05/01 05:14:15;;;;;;;2.22;1.85;;;15.50;87.00;;;;;;5045484;28;20030;-53
2023/05/01 05:16:41;;;;;;;2.10;1.90;;;15.50;87.00;;;;;;5045728;28;20442;-53
2023/05/01 05:19:06;;;;;;;2.42;2.08;;;15.50;87.10;;;;;;5046826;28;20036;-53
2023/05/01 05:21:32;;;;;;;2.28;2.08;;;15.50;87.20;;;;;;5046893;28;20413;-53
2023/05/01 05:23:57;;;;;;;2.17;1.98;;;15.50;87.20;;;;;;5046476;28;20470;-53
2023/05/01 05:26:25;;;;;;;2.28;2.08;;;15.50;87.10;;;;;;5045326;28;20034;-53
2023/05/01 05:28:51;;;;;;;3.05;2.00;;;15.50;87.20;;;;;;5045830;28;20040;-53
2023/05/01 05:31:18;;;;;;;3.28;2.30;;;15.40;87.10;;;;;;5046905;28;20057;-53
2023/05/01 05:33:43;;;;;;;2.42;2.10;;;15.40;87.70;;;;;;5046917;28;20029;-53
2023/05/01 05:36:10;;;;;;;2.40;2.15;;;15.40;87.20;;;;;;5047556;28;20055;-53
2023/05/01 05:38:35;;;;;;;3.03;1.90;;;15.40;87.80;;;;;;5044704;28;20045;-53
2023/05/01 05:41:01;;;;;;;2.30;2.10;;;15.40;87.20;;;;;;5046414;28;20025;-53
2023/05/01 05:43:27;;;;;;;3.42;2.00;;;15.40;87.20;;;;;;5046550;28;20026;-53
2023/05/01 05:45:57;;;;;;;2.67;2.42;;;15.40;87.30;;;;;;5046306;28;20025;-53
2023/05/01 05:48:24;;;;;;;2.38;2.17;;;15.40;87.30;;;;;;5046508;28;20056;-53
2023/05/01 05:50:51;;;;;;;4.22;2.05;;;15.40;87.40;;;;;;5046590;28;20034;-53
2023/05/01 05:53:17;;;;;;;2.10;1.90;;;15.40;87.60;;;;;;5046148;28;20022;-53
2023/05/01 05:55:44;;;;;;;2.53;1.95;;;15.40;87.50;;;;;;5045802;28;20033;-53
2023/05/01 05:58:10;;;;;;;2.35;1.80;;;15.40;87.30;;;;;;5045921;28;20022;-53
2023/05/01 06:00:35;;;;;;;2.10;1.90;;;15.40;87.30;;;;;;5044735;28;20086;-53
2023/05/01 06:03:01;;;;;;;3.35;2.25;;;15.40;87.60;;;;;;5044471;28;20406;-53
2023/05/01 06:05:27;;;;;;;1.90;1.70;;;15.40;87.70;;;;;;5046125;28;20040;-53
2023/05/01 06:07:53;;;;;;;2.58;2.15;;;15.40;87.90;;;;;;5045662;28;20041;-53
2023/05/01 06:10:20;;;;;;;2.30;2.10;;;15.40;87.90;;;;;;5046097;28;20042;-53
2023/05/01 06:12:46;;;;;;;3.05;2.33;;;15.40;88.00;;;;;;5045957;28;20070;-53
2023/05/01 06:15:15;;;;;;;2.75;2.10;;;15.40;88.00;;;;;;5046729;28;20524;-54
2023/05/01 06:17:41;;;;;;;2.35;1.95;;;15.40;88.10;;;;;;5046077;28;20051;-53
2023/05/01 06:20:08;;;;;;;2.42;2.17;;;15.40;88.20;;;;;;5044621;28;20040;-53
2023/05/01 06:22:33;;;;;;;2.30;1.90;;;15.40;88.30;;;;;;5044590;28;20033;-53
2023/05/01 06:24:59;;;;;;;2.30;2.10;;;15.40;88.40;;;;;;5045817;28;20069;-53
2023/05/01 06:27:25;;;;;;;2.72;2.00;;;15.40;88.60;;;;;;5045288;28;20029;-53
2023/05/01 06:29:51;;;;;;;2.17;1.98;;;15.40;88.70;;;;;;5045637;28;20108;-53
2023/05/01 06:32:16;;;;;;;2.55;2.00;;;15.40;88.60;;;;;;5045595;28;20052;-53
2023/05/01 06:34:42;;;;;;;2.17;1.98;;;15.40;88.70;;;;;;5045003;28;20030;-53
2023/05/01 06:37:07;;;;;;;2.45;2.10;;;15.40;88.80;;;;;;5045294;28;20448;-53
2023/05/01 06:39:33;;;;;;;2.20;1.83;;;15.40;88.90;;;;;;5045251;28;20116;-53
2023/05/01 06:42:00;;;;;;;2.25;2.00;;;15.40;89.10;;;;;;5045443;28;20128;-53
2023/05/01 06:44:25;;;;;;;5.55;2.08;;;15.40;89.10;;;;;;5044968;28;20029;-53
2023/05/01 06:46:51;;;;;;;2.38;1.92;;;15.40;89.20;;;;;;5043607;28;20446;-53
2023/05/01 06:49:16;;;;;;;1.80;1.70;;;15.40;89.30;;;;;;5044418;28;20037;-54
2023/05/01 06:51:42;;;;;;;2.42;1.98;;;15.40;90.00;;;;;;5043579;28;20091;-52
2023/05/01 06:54:08;;;;;;;2.83;1.85;;;15.40;90.00;;;;;;5026826;28;20021;-53
2023/05/01 06:56:33;;;;;;;2.65;1.92;;;15.40;90.00;;;;;;5043152;28;20034;-54
2023/05/01 06:58:59;;;;;;;4.05;1.73;;;15.40;89.40;;;;;;5044834;28;20033;-53
2023/05/01 07:01:25;;;;;;;1.92;1.73;;;15.40;89.50;;;;;;5044682;28;20029;-53
2023/05/01 07:03:50;;;;;;;1.98;1.77;;;15.40;89.50;;;;;;5043359;28;20075;-53
2023/05/01 07:06:16;;;;;;;2.13;1.90;;;15.40;89.50;;;;;;5043357;28;20025;-53
2023/05/01 07:08:41;;;;;;;2.25;1.90;;;15.40;89.60;;;;;;5043300;28;20052;-53
2023/05/01 07:11:07;;;;;;;2.30;2.10;;;15.50;89.80;;;;;;5027199;28;20028;-53
2023/05/01 07:13:33;;;;;;;1.83;1.60;;;15.40;89.70;;;;;;5044465;28;20029;-53
2023/05/01 07:16:00;;;;;;;5.18;1.80;;;15.50;89.90;;;;;;5044753;28;20036;-53
2023/05/01 07:18:25;;;;;;;5.90;2.20;;;15.50;89.90;;;;;;5044563;28;20097;-56
2023/05/01 07:20:51;;;;;;;1.70;1.60;;;15.50;89.90;;;;;;5044207;28;20045;-56
2023/05/01 07:23:17;;;;;;;1.92;1.80;;;15.50;89.90;;;;;;5042983;28;20036;-56
2023/05/01 07:25:44;;;;;;;2.38;1.67;;;15.50;89.90;;;;;;5044579;28;20030;-56
2023/05/01 07:28:09;;;;;;;2.50;1.88;;;15.50;89.70;;;;;;5043700;28;20024;-56
2023/05/01 07:30:36;;;;;;;2.15;1.95;;;15.50;89.80;;;;;;5044410;28;20029;-55
2023/05/01 07:33:01;;;;;;;2.08;1.85;;;15.60;89.90;;;;;;5043049;28;20018;-56
2023/05/01 07:35:27;;;;;;;2.35;1.80;;;15.60;90.20;;;;;;5044556;28;20096;-56
2023/05/01 07:37:55;;;;;;;2.95;1.85;;;15.60;90.00;;;;;;5044249;28;20056;-56
2023/05/01 07:40:20;;;;;;;2.97;1.80;;;15.60;90.00;;;;;;5044085;28;20027;-56
2023/05/01 07:42:46;;;;;;;2.60;1.65;;;15.60;90.00;;;;;;5044393;28;20393;-56
2023/05/01 07:45:11;;;;;;;5.25;1.85;;;15.60;90.00;;;;;;5044333;28;20032;-56
2023/05/01 07:47:37;;;;;;;2.35;1.70;;;15.60;90.00;;;;;;5044253;28;20041;-56
2023/05/01 07:50:03;;;;;;;2.47;1.75;;;15.60;90.00;;;;;;5043038;28;20029;-56
2023/05/01 07:52:29;;;;;;;2.05;1.80;;;15.60;90.10;;;;;;5044010;28;20029;-57
2023/05/01 07:54:54;;;;;;;4.35;1.80;;;15.60;90.10;;;;;;5048320;28;20085;-56
2023/05/01 07:57:22;;;;;;;3.15;1.90;;;15.60;90.10;;;;;;5046785;28;20044;-56
2023/05/01 07:59:47;;;;;;;3.83;1.50;;;15.70;90.20;;;;;;5048439;28;20033;-56
2023/05/01 08:02:15;;;;;;;1.80;1.67;;;15.70;90.30;;;;;;5045755;28;20025;-56
2023/05/01 08:04:41;;;;;;;10.30;2.30;;;15.70;90.20;;;;;;5047417;28;20040;-56
2023/05/01 08:07:07;;;;;;;6.45;1.80;;;15.70;90.20;;;;;;5043494;28;20053;-56
2023/05/01 08:09:32;;;;;;;6.82;2.55;;;15.70;90.30;;;;;;5030481;28;20104;-56
2023/05/01 08:11:58;;;;;;;9.02;2.67;;;15.70;90.30;;;;;;5046635;28;20056;-56
2023/05/01 08:14:23;;;;;;;9.10;2.85;;;15.70;90.40;;;;;;5047658;28;20481;-56
2023/05/01 08:16:54;;;;;;;9.15;2.78;;;15.80;90.50;;;;;;5047395;28;20199;-56
2023/05/01 08:19:19;;;;;;;17.20;4.03;;;15.80;90.70;;;;;;5046780;28;20037;-56
2023/05/01 08:21:45;;;;;;;119.47;10.65;;;15.80;90.70;;;;;;5033889;28;20030;-56
2023/05/01 08:24:11;;;;;;;43.92;7.13;;;15.80;90.80;;;;;;5046845;28;20093;-56
2023/05/01 08:26:37;;;;;;;39.03;6.95;;;15.90;90.90;;;;;;5046129;28;20057;-56
2023/05/01 08:29:03;;;;;;;47.80;7.00;;;15.90;90.90;;;;;;5041413;28;20045;-56
2023/05/01 08:31:29;;;;;;;45.13;6.20;;;15.90;90.90;;;;;;5042934;28;20033;-56
2023/05/01 08:33:55;;;;;;;50.00;7.07;;;15.90;90.80;;;;;;5045873;28;20474;-56
2023/05/01 08:36:21;;;;;;;52.53;7.45;;;16.00;90.80;;;;;;5028869;28;20081;-56
2023/05/01 08:38:47;;;;;;;47.10;6.38;;;16.00;90.90;;;;;;5040804;28;20037;-56
2023/05/01 08:41:20;;;;;;;35.15;6.20;;;16.00;91.00;;;;;;5043579;28;20026;-56
2023/05/01 08:43:46;;;;;;;51.17;8.02;;;16.10;90.90;;;;;;5029026;28;20037;-56
2023/05/01 08:46:12;;;;;;;73.00;9.77;;;16.10;91.00;;;;;;5035507;28;20033;-56
2023/05/01 08:48:38;;;;;;;66.07;9.13;;;16.10;91.10;;;;;;5043317;28;20155;-56
2023/05/01 08:51:04;;;;;;;65.65;9.13;;;16.20;91.20;;;;;;5023197;28;20028;-56
2023/05/01 08:53:30;;;;;;;85.18;9.05;;;16.20;91.20;;;;;;5028072;28;20053;-56
2023/05/01 08:55:56;;;;;;;40.35;7.25;;;16.20;91.20;;;;;;5035025;28;20103;-56
2023/05/01 08:58:23;;;;;;;60.25;8.20;;;16.20;91.30;;;;;;5041102;28;20030;-55
2023/05/01 09:00:49;;;;;;;89.50;9.40;;;16.20;91.40;;;;;;5046603;28;20033;-55
2023/05/01 09:03:14;;;;;;;101.43;11.73;;;16.20;91.30;;;;;;5043327;28;20438;-56
2023/05/01 09:05:40;;;;;;;75.82;10.82;;;16.20;91.70;;;;;;5056395;28;20038;-56
2023/05/01 09:08:06;;;;;;;130.00;13.35;;;16.30;91.70;;;;;;5043717;28;20025;-56
2023/05/01 09:10:32;;;;;;;92.25;13.35;;;16.30;91.70;;;;;;5046793;28;20032;-55
2023/05/01 09:13:00;;;;;;;94.72;13.65;;;16.30;91.80;;;;;;5037387;28;20497;-55
2023/05/01 09:15:26;;;;;;;79.57;11.80;;;16.40;91.80;;;;;;5043734;28;20021;-55
2023/05/01 09:17:51;;;;;;;90.57;12.80;;;16.50;91.90;;;;;;5041060;28;20503;-56
2023/05/01 09:20:18;;;;;;;106.70;14.65;;;16.50;91.80;;;;;;5029447;28;20382;-56
2023/05/01 09:22:43;;;;;;;120.00;15.48;;;16.60;91.80;;;;;;5030045;28;20033;-55
2023/05/01 09:25:09;;;;;;;138.18;15.13;;;16.60;91.90;;;;;;5042845;28;20033;-56
2023/05/01 09:27:36;;;;;;;117.32;15.90;;;16.60;91.70;;;;;;5045839;28;20044;-56
2023/05/01 09:30:02;;;;;;;98.95;13.70;;;16.70;91.70;;;;;;5046010;28;20080;-56
2023/05/01 09:32:27;;;;;;;106.45;14.85;;;16.80;91.70;;;;;;5042680;28;20470;-56
2023/05/01 09:34:53;;;;;;;141.43;16.73;;;16.80;91.80;;;;;;5043079;28;20034;-56
2023/05/01 09:37:30;;;;;;;152.68;17.88;;;16.80;91.80;;;;;;5043133;28;20092;-56
2023/05/01 09:40:06;;;;;;;169.35;18.98;;;16.80;91.70;;;;;;5041816;28;20041;-56
2023/05/01 09:42:38;;;;;;;179.20;21.73;;;16.90;91.70;;;;;;5029702;28;20048;-56
2023/05/01 09:45:10;;;;;;;156.98;19.20;;;16.90;91.80;;;;;;5043485;28;20450;-55
2023/05/01 09:47:36;;;;;;;174.25;20.75;;;16.90;91.90;;;;;;5045118;28;20029;-53
2023/05/01 09:50:03;;;;;;;180.55;21.13;;;16.90;91.90;;;;;;5045342;28;20079;-53
2023/05/01 09:52:29;;;;;;;165.32;21.42;;;16.90;91.90;;;;;;5042081;28;20025;-53
2023/05/01 09:55:11;;;;;;;211.80;22.33;;;17.00;92.00;;;;;;5044726;28;20029;-53
2023/05/01 09:57:37;;;;;;;188.35;22.65;;;17.00;92.10;;;;;;5044337;28;20026;-53
2023/05/01 10:00:09;;;;;;;145.18;19.38;;;17.00;92.10;;;;;;5043739;28;20064;-53
2023/05/01 10:02:35;;;;;;;171.63;21.23;;;17.00;92.00;;;;;;5043009;28;20543;-53
2023/05/01 10:05:00;;;;;;;194.00;23.90;;;17.00;92.10;;;;;;5044434;28;20116;-53
2023/05/01 10:07:26;;;;;;;233.93;23.83;;;17.10;92.20;;;;;;5034965;28;20446;-53
2023/05/01 10:09:52;;;;;;;240.60;24.65;;;17.10;92.30;;;;;;5040875;28;20029;-53
2023/05/01 10:12:25;;;;;;;162.43;22.10;;;17.20;92.40;;;;;;5032455;28;20045;-53
2023/05/01 10:14:52;;;;;;;214.02;26.52;;;17.20;92.30;;;;;;5032525;28;20110;-53
2023/05/01 10:17:21;;;;;;;236.95;27.23;;;17.20;92.40;;;;;;5034790;28;20038;-53
2023/05/01 10:19:47;;;;;;;393.25;41.42;;;17.30;92.30;;;;;;5044394;28;20056;-53
2023/05/01 10:22:13;;;;;;;434.88;46.00;;;17.40;92.20;;;;;;5044806;28;20038;-53
2023/05/01 10:24:41;;;;;;;255.90;27.23;;;17.40;92.20;;;;;;5037357;28;20029;-54
2023/05/01 10:27:07;;;;;;;193.32;21.90;;;17.40;92.10;;;;;;5040116;28;20037;-53
2023/05/01 10:29:36;;;;;;;215.93;23.17;;;17.40;92.10;;;;;;5030656;28;20033;-53
2023/05/01 10:32:08;;;;;;;212.27;25.00;;;17.50;92.20;;;;;;5030344;28;20041;-53
2023/05/01 10:34:36;;;;;;;240.40;28.83;;;17.50;92.30;;;;;;5028999;28;20049;-53
2023/05/01 10:37:05;;;;;;;247.13;27.77;;;17.50;92.50;;;;;;5029569;28;20044;-53
2023/05/01 10:39:35;;;;;;;173.63;23.20;;;17.60;92.60;;;;;;5037363;28;20066;-53
2023/05/01 10:42:04;;;;;;;443.77;48.13;;;17.60;92.50;;;;;;5027420;28;20049;-53
2023/05/01 10:44:30;;;;;;;211.75;27.33;;;17.70;92.50;;;;;;5031569;28;20021;-54
2023/05/01 10:46:55;;;;;;;346.02;36.83;;;17.70;92.50;;;;;;5034469;28;20119;-54
2023/05/01 10:49:21;;;;;;;223.90;28.65;;;17.70;92.50;;;;;;5033595;28;20025;-53
2023/05/01 10:52:02;;;;;;;197.40;23.70;;;17.80;92.70;;;;;;5042528;28;20037;-54
2023/05/01 10:54:29;;;;;;;192.95;22.95;;;17.70;92.60;;;;;;5031556;28;20036;-53
2023/05/01 10:56:57;;;;;;;224.90;27.40;;;17.80;92.60;;;;;;5038249;28;20052;-54
2023/05/01 10:59:23;;;;;;;160.20;21.35;;;17.80;92.50;;;;;;5038593;28;20068;-53
2023/05/01 11:01:52;;;;;;;175.27;22.48;;;17.80;92.40;;;;;;5031564;28;20033;-54
2023/05/01 11:04:20;;;;;;;143.50;20.35;;;17.80;92.40;;;;;;5037889;28;20100;-53
2023/05/01 11:07:06;;;;;;;236.52;26.77;;;17.80;92.40;;;;;;5038962;28;20037;-53
2023/05/01 11:09:54;;;;;;;152.40;18.77;;;17.80;92.40;;;;;;5027255;28;20113;-53
2023/05/01 11:12:47;;;;;;;143.23;18.48;;;17.80;92.40;;;;;;5037685;28;20141;-53
2023/05/01 11:15:31;;;;;;;164.77;20.80;;;17.90;92.30;;;;;;5037856;28;20022;-53
2023/05/01 11:17:57;;;;;;;183.52;21.80;;;17.90;92.30;;;;;;5042470;28;20022;-53
2023/05/01 11:20:23;;;;;;;161.48;22.40;;;17.90;92.50;;;;;;5031073;28;20494;-53
2023/05/01 11:22:50;;;;;;;164.25;19.92;;;17.90;92.60;;;;;;5041828;28;20041;-53
2023/05/01 11:25:20;;;;;;;100.45;14.00;;;17.90;92.40;;;;;;5030319;28;20038;-54
2023/05/01 11:27:47;;;;;;;142.15;17.60;;;17.90;92.20;;;;;;5023096;28;20113;-54
2023/05/01 11:30:13;;;;;;;171.23;22.38;;;17.90;92.50;;;;;;5030926;28;20056;-53
2023/05/01 11:32:38;;;;;;;186.48;24.45;;;18.00;92.30;;;;;;5032663;28;20034;-56
2023/05/01 11:35:05;;;;;;;164.23;18.92;;;18.00;92.30;;;;;;5028269;28;20032;-53
2023/05/01 11:37:41;;;;;;;165.38;21.58;;;18.00;92.30;;;;;;5029246;28;20122;-53
2023/05/01 11:40:27;;;;;;;163.60;19.27;;;18.00;92.30;;;;;;5035837;28;20033;-53
2023/05/01 11:43:05;;;;;;;155.52;18.63;;;18.00;92.10;;;;;;5041433;28;20072;-53
2023/05/01 11:45:31;;;;;;;125.15;15.95;;;18.10;92.20;;;;;;5033400;28;20056;-53
2023/05/01 11:47:57;;;;;;;167.05;20.60;;;18.10;92.10;;;;;;5035958;28;20044;-53
2023/05/01 11:50:39;;;;;;;199.13;24.42;;;18.10;92.10;;;;;;5034806;28;20026;-53
2023/05/01 11:53:16;;;;;;;221.52;26.38;;;18.10;92.00;;;;;;5035894;28;20041;-53
2023/05/01 11:55:43;;;;;;;214.00;25.02;;;18.20;92.10;;;;;;5026913;28;20029;-53
2023/05/01 11:58:08;;;;;;;233.90;23.85;;;18.20;92.20;;;;;;5042444;28;20033;-53
2023/05/01 12:00:41;;;;;;;185.40;22.13;;;18.20;92.10;;;;;;5036222;28;20192;-53
2023/05/01 12:03:10;;;;;;;200.65;25.48;;;18.20;92.10;;;;;;5033871;28;20351;-53
2023/05/01 12:05:37;;;;;;;213.32;23.77;;;18.20;91.90;;;;;;5035149;28;20030;-53
2023/05/01 12:08:23;;;;;;;197.65;24.35;;;18.30;91.80;;;;;;5038757;28;20041;-53
2023/05/01 12:10:54;;;;;;;211.20;24.98;;;18.30;91.90;;;;;;5034577;28;20037;-53
2023/05/01 12:13:20;;;;;;;222.18;23.90;;;18.40;92.30;;;;;;5031448;28;20058;-53
2023/05/01 12:15:47;;;;;;;212.65;24.98;;;18.40;91.90;;;;;;5032811;28;20028;-53
2023/05/01 12:18:14;;;;;;;208.35;25.77;;;18.50;91.50;;;;;;5023528;28;20088;-53
2023/05/01 12:20:40;;;;;;;255.65;29.75;;;18.50;91.60;;;;;;5033667;28;20101;-54
2023/05/01 12:23:06;;;;;;;248.30;27.38;;;18.60;91.50;;;;;;5042469;28;20079;-53
2023/05/01 12:25:33;;;;;;;207.02;27.55;;;18.60;91.60;;;;;;5036714;28;20087;-53
2023/05/01 12:28:02;;;;;;;259.10;30.45;;;18.60;91.60;;;;;;5031061;28;20042;-54
2023/05/01 12:30:28;;;;;;;285.67;30.05;;;18.70;91.90;;;;;;5035130;28;20041;-53
2023/05/01 12:32:57;;;;;;;288.30;31.85;;;18.70;91.50;;;;;;5038244;28;20026;-53
2023/05/01 12:35:28;;;;;;;266.17;32.50;;;18.80;91.50;;;;;;5036849;28;20373;-56
2023/05/01 12:37:54;;;;;;;294.50;32.08;;;18.80;91.60;;;;;;5025652;28;20065;-56
2023/05/01 12:40:21;;;;;;;270.98;31.58;;;18.90;92.10;;;;;;5038931;28;20045;-56